sensor_id;sensor_type;location;lat;lon;timestamp;P1;durP1;ratioP1;P2;durP2;ratioP2
44434;SDS011;30138;20.964;105.830;2023-02-08T00:04:26;66.32;;;41.08;;
44434;SDS011;30138;20.964;105.830;2023-02-08T00:09:34;64.40;;;41.80;;
44434;SDS011;30138;20.964;105.830;2023-02-08T00:14:41;62.67;;;40.10;;
44434;SDS011;30138;20.964;105.830;2023-02-08T00:19:48;60.95;;;40.78;;
44434;SDS011;30138;20.964;105.830;2023-02-08T00:24:56;67.40;;;42.60;;
44434;SDS011;30138;20.964;105.830;2023-02-08T00:30:03;61.53;;;40.95;;
44434;SDS011;30138;20.964;105.830;2023-02-08T00:35:10;61.67;;;39.90;;
44434;SDS011;30138;20.964;105.830;2023-02-08T00:40:19;62.80;;;40.42;;
44434;SDS011;30138;20.964;105.830;2023-02-08T00:45:26;57.60;;;39.50;;
44434;SDS011;30138;20.964;105.830;2023-02-08T00:50:32;60.97;;;40.72;;
44434;SDS011;30138;20.964;105.830;2023-02-08T00:55:41;66.80;;;40.53;;
44434;SDS011;30138;20.964;105.830;2023-02-08T01:00:54;58.30;;;40.03;;
44434;SDS011;30138;20.964;105.830;2023-02-08T01:06:03;63.70;;;39.03;;
44434;SDS011;30138;20.964;105.830;2023-02-08T01:11:14;72.65;;;38.63;;
44434;SDS011;30138;20.964;105.830;2023-02-08T01:16:26;66.97;;;37.58;;
44434;SDS011;30138;20.964;105.830;2023-02-08T01:21:35;75.32;;;38.58;;
44434;SDS011;30138;20.964;105.830;2023-02-08T01:26:45;62.60;;;38.92;;
44434;SDS011;30138;20.964;105.830;2023-02-08T01:31:53;62.35;;;40.20;;
44434;SDS011;30138;20.964;105.830;2023-02-08T01:36:59;64.32;;;39.08;;
44434;SDS011;30138;20.964;105.830;2023-02-08T01:42:10;63.08;;;38.22;;
44434;SDS011;30138;20.964;105.830;2023-02-08T01:47:19;60.45;;;39.72;;
44434;SDS011;30138;20.964;105.830;2023-02-08T01:52:26;71.95;;;39.45;;
44434;SDS011;30138;20.964;105.830;2023-02-08T01:57:35;66.57;;;39.42;;
44434;SDS011;30138;20.964;105.830;2023-02-08T02:02:41;62.50;;;39.72;;
44434;SDS011;30138;20.964;105.830;2023-02-08T02:07:50;63.75;;;40.47;;
44434;SDS011;30138;20.964;105.830;2023-02-08T02:13:02;65.43;;;41.65;;
44434;SDS011;30138;20.964;105.830;2023-02-08T02:18:21;62.63;;;41.17;;
44434;SDS011;30138;20.964;105.830;2023-02-08T02:29:38;60.42;;;39.90;;
44434;SDS011;30138;20.964;105.830;2023-02-08T02:35:31;61.78;;;39.45;;
44434;SDS011;30138;20.964;105.830;2023-02-08T02:40:49;61.35;;;37.83;;
44434;SDS011;30138;20.964;105.830;2023-02-08T02:46:08;51.97;;;36.47;;
44434;SDS011;30138;20.964;105.830;2023-02-08T02:51:26;57.88;;;37.58;;
44434;SDS011;30138;20.964;105.830;2023-02-08T02:56:40;59.60;;;38.03;;
44434;SDS011;30138;20.964;105.830;2023-02-08T03:01:49;61.10;;;38.22;;
44434;SDS011;30138;20.964;105.830;2023-02-08T03:07:01;54.55;;;37.72;;
44434;SDS011;30138;20.964;105.830;2023-02-08T03:12:20;57.50;;;38.95;;
44434;SDS011;30138;20.964;105.830;2023-02-08T03:17:41;71.13;;;42.05;;
44434;SDS011;30138;20.964;105.830;2023-02-08T03:23:06;61.42;;;40.60;;
44434;SDS011;30138;20.964;105.830;2023-02-08T03:28:20;63.17;;;40.65;;
44434;SDS011;30138;20.964;105.830;2023-02-08T03:33:33;62.08;;;41.55;;
44434;SDS011;30138;20.964;105.830;2023-02-08T03:38:47;68.90;;;42.33;;
44434;SDS011;30138;20.964;105.830;2023-02-08T03:43:57;66.50;;;41.55;;
44434;SDS011;30138;20.964;105.830;2023-02-08T03:49:07;65.75;;;41.97;;
44434;SDS011;30138;20.964;105.830;2023-02-08T03:54:21;70.05;;;43.53;;
44434;SDS011;30138;20.964;105.830;2023-02-08T03:59:32;73.10;;;43.65;;
44434;SDS011;30138;20.964;105.830;2023-02-08T04:04:44;68.57;;;43.40;;
44434;SDS011;30138;20.964;105.830;2023-02-08T04:09:54;69.38;;;41.90;;
44434;SDS011;30138;20.964;105.830;2023-02-08T04:15:01;75.07;;;43.90;;
44434;SDS011;30138;20.964;105.830;2023-02-08T04:20:09;72.97;;;45.25;;
44434;SDS011;30138;20.964;105.830;2023-02-08T04:25:18;74.00;;;45.22;;
44434;SDS011;30138;20.964;105.830;2023-02-08T04:30:26;83.90;;;46.78;;
44434;SDS011;30138;20.964;105.830;2023-02-08T04:35:32;72.05;;;43.70;;
44434;SDS011;30138;20.964;105.830;2023-02-08T04:40:40;70.90;;;44.00;;
44434;SDS011;30138;20.964;105.830;2023-02-08T04:45:48;77.03;;;46.00;;
44434;SDS011;30138;20.964;105.830;2023-02-08T04:50:55;78.68;;;45.72;;
44434;SDS011;30138;20.964;105.830;2023-02-08T04:56:04;75.75;;;45.20;;
44434;SDS011;30138;20.964;105.830;2023-02-08T05:01:12;75.30;;;45.08;;
44434;SDS011;30138;20.964;105.830;2023-02-08T05:06:18;78.53;;;46.58;;
44434;SDS011;30138;20.964;105.830;2023-02-08T05:11:30;73.82;;;44.42;;
44434;SDS011;30138;20.964;105.830;2023-02-08T05:16:36;83.40;;;46.75;;
44434;SDS011;30138;20.964;105.830;2023-02-08T05:21:43;74.47;;;46.10;;
44434;SDS011;30138;20.964;105.830;2023-02-08T05:26:52;82.45;;;48.15;;
44434;SDS011;30138;20.964;105.830;2023-02-08T05:31:59;86.75;;;50.05;;
44434;SDS011;30138;20.964;105.830;2023-02-08T05:37:07;83.93;;;50.90;;
44434;SDS011;30138;20.964;105.830;2023-02-08T05:42:17;77.55;;;49.55;;
44434;SDS011;30138;20.964;105.830;2023-02-08T05:47:24;80.43;;;49.05;;
44434;SDS011;30138;20.964;105.830;2023-02-08T05:52:32;83.18;;;49.80;;
44434;SDS011;30138;20.964;105.830;2023-02-08T05:57:40;86.13;;;50.28;;
44434;SDS011;30138;20.964;105.830;2023-02-08T06:02:47;84.40;;;51.42;;
44434;SDS011;30138;20.964;105.830;2023-02-08T06:07:55;85.65;;;51.33;;
44434;SDS011;30138;20.964;105.830;2023-02-08T06:13:02;84.32;;;51.72;;
44434;SDS011;30138;20.964;105.830;2023-02-08T06:18:11;85.40;;;51.17;;
44434;SDS011;30138;20.964;105.830;2023-02-08T06:23:17;85.95;;;53.30;;
44434;SDS011;30138;20.964;105.830;2023-02-08T06:28:25;89.90;;;51.30;;
44434;SDS011;30138;20.964;105.830;2023-02-08T06:33:32;85.10;;;50.97;;
44434;SDS011;30138;20.964;105.830;2023-02-08T06:38:38;89.28;;;52.22;;
44434;SDS011;30138;20.964;105.830;2023-02-08T06:43:46;87.93;;;52.65;;
44434;SDS011;30138;20.964;105.830;2023-02-08T06:48:53;88.18;;;52.55;;
44434;SDS011;30138;20.964;105.830;2023-02-08T06:54:00;86.15;;;51.50;;
44434;SDS011;30138;20.964;105.830;2023-02-08T06:59:09;88.03;;;53.42;;
44434;SDS011;30138;20.964;105.830;2023-02-08T07:04:16;85.18;;;52.08;;
44434;SDS011;30138;20.964;105.830;2023-02-08T07:09:23;87.53;;;52.90;;
44434;SDS011;30138;20.964;105.830;2023-02-08T07:14:32;82.57;;;52.58;;
44434;SDS011;30138;20.964;105.830;2023-02-08T07:19:39;83.35;;;50.67;;
44434;SDS011;30138;20.964;105.830;2023-02-08T07:24:46;88.13;;;52.55;;
44434;SDS011;30138;20.964;105.830;2023-02-08T07:29:55;85.40;;;51.28;;
44434;SDS011;30138;20.964;105.830;2023-02-08T07:35:04;82.75;;;53.03;;
44434;SDS011;30138;20.964;105.830;2023-02-08T07:40:11;80.25;;;51.30;;
44434;SDS011;30138;20.964;105.830;2023-02-08T07:45:20;82.65;;;51.97;;
44434;SDS011;30138;20.964;105.830;2023-02-08T07:50:26;83.10;;;52.60;;
44434;SDS011;30138;20.964;105.830;2023-02-08T07:55:32;84.80;;;52.05;;
44434;SDS011;30138;20.964;105.830;2023-02-08T08:00:41;85.30;;;51.40;;
44434;SDS011;30138;20.964;105.830;2023-02-08T08:05:48;85.22;;;51.83;;
44434;SDS011;30138;20.964;105.830;2023-02-08T08:10:54;88.10;;;53.25;;
44434;SDS011;30138;20.964;105.830;2023-02-08T08:16:02;83.22;;;52.50;;
44434;SDS011;30138;20.964;105.830;2023-02-08T08:21:09;89.05;;;51.85;;
44434;SDS011;30138;20.964;105.830;2023-02-08T08:26:16;92.90;;;53.40;;
44434;SDS011;30138;20.964;105.830;2023-02-08T08:31:25;88.45;;;53.50;;
44434;SDS011;30138;20.964;105.830;2023-02-08T08:36:35;87.22;;;52.63;;
44434;SDS011;30138;20.964;105.830;2023-02-08T08:41:41;90.00;;;52.15;;
44434;SDS011;30138;20.964;105.830;2023-02-08T08:46:49;94.57;;;54.33;;
44434;SDS011;30138;20.964;105.830;2023-02-08T08:51:58;89.10;;;55.20;;
44434;SDS011;30138;20.964;105.830;2023-02-08T08:57:06;94.82;;;56.08;;
44434;SDS011;30138;20.964;105.830;2023-02-08T09:02:14;96.13;;;55.58;;
44434;SDS011;30138;20.964;105.830;2023-02-08T09:07:21;95.15;;;57.13;;
44434;SDS011;30138;20.964;105.830;2023-02-08T09:12:37;101.47;;;58.05;;
44434;SDS011;30138;20.964;105.830;2023-02-08T09:17:46;97.75;;;58.22;;
44434;SDS011;30138;20.964;105.830;2023-02-08T09:22:58;100.82;;;59.58;;
44434;SDS011;30138;20.964;105.830;2023-02-08T09:28:06;105.82;;;59.28;;
44434;SDS011;30138;20.964;105.830;2023-02-08T09:33:18;112.43;;;58.53;;
44434;SDS011;30138;20.964;105.830;2023-02-08T09:38:26;101.03;;;59.17;;
44434;SDS011;30138;20.964;105.830;2023-02-08T09:43:35;110.57;;;58.08;;
44434;SDS011;30138;20.964;105.830;2023-02-08T09:48:54;113.85;;;60.42;;
44434;SDS011;30138;20.964;105.830;2023-02-08T09:54:07;107.60;;;59.75;;
44434;SDS011;30138;20.964;105.830;2023-02-08T09:59:23;102.82;;;57.65;;
44434;SDS011;30138;20.964;105.830;2023-02-08T10:04:38;111.85;;;60.47;;
44434;SDS011;30138;20.964;105.830;2023-02-08T10:09:58;110.13;;;58.30;;
44434;SDS011;30138;20.964;105.830;2023-02-08T10:15:15;109.03;;;58.25;;
44434;SDS011;30138;20.964;105.830;2023-02-08T10:26:40;93.97;;;53.05;;
44434;SDS011;30138;20.964;105.830;2023-02-08T10:32:04;94.68;;;53.25;;
44434;SDS011;30138;20.964;105.830;2023-02-08T10:37:44;89.40;;;51.67;;
44434;SDS011;30138;20.964;105.830;2023-02-08T10:42:54;93.22;;;51.58;;
44434;SDS011;30138;20.964;105.830;2023-02-08T10:48:28;89.22;;;50.97;;
44434;SDS011;30138;20.964;105.830;2023-02-08T10:53:54;87.70;;;51.42;;
44434;SDS011;30138;20.964;105.830;2023-02-08T10:59:18;90.95;;;50.85;;
44434;SDS011;30138;20.964;105.830;2023-02-08T11:04:56;82.03;;;48.03;;
44434;SDS011;30138;20.964;105.830;2023-02-08T11:10:20;94.38;;;50.60;;
44434;SDS011;30138;20.964;105.830;2023-02-08T11:15:45;81.00;;;48.15;;
44434;SDS011;30138;20.964;105.830;2023-02-08T11:21:01;83.53;;;48.65;;
44434;SDS011;30138;20.964;105.830;2023-02-08T11:26:17;86.55;;;47.30;;
44434;SDS011;30138;20.964;105.830;2023-02-08T11:31:38;74.07;;;44.93;;
44434;SDS011;30138;20.964;105.830;2023-02-08T11:37:05;74.20;;;44.50;;
44434;SDS011;30138;20.964;105.830;2023-02-08T11:42:39;76.78;;;44.58;;
44434;SDS011;30138;20.964;105.830;2023-02-08T11:47:57;71.90;;;42.58;;
44434;SDS011;30138;20.964;105.830;2023-02-08T11:53:31;67.45;;;42.22;;
44434;SDS011;30138;20.964;105.830;2023-02-08T12:04:35;73.70;;;43.05;;
44434;SDS011;30138;20.964;105.830;2023-02-08T12:10:10;74.75;;;43.08;;
44434;SDS011;30138;20.964;105.830;2023-02-08T12:22:05;69.30;;;41.90;;
44434;SDS011;30138;20.964;105.830;2023-02-08T12:27:35;74.13;;;43.40;;
44434;SDS011;30138;20.964;105.830;2023-02-08T12:33:27;67.90;;;43.00;;
44434;SDS011;30138;20.964;105.830;2023-02-08T12:39:31;72.10;;;42.90;;
44434;SDS011;30138;20.964;105.830;2023-02-08T12:51:33;69.70;;;42.10;;
44434;SDS011;30138;20.964;105.830;2023-02-08T12:57:25;73.20;;;43.42;;
44434;SDS011;30138;20.964;105.830;2023-02-08T13:03:24;64.80;;;41.58;;
44434;SDS011;30138;20.964;105.830;2023-02-08T13:09:25;67.32;;;40.78;;
44434;SDS011;30138;20.964;105.830;2023-02-08T13:15:00;64.65;;;41.45;;
44434;SDS011;30138;20.964;105.830;2023-02-08T13:32:39;73.55;;;42.28;;
44434;SDS011;30138;20.964;105.830;2023-02-08T13:38:03;71.32;;;42.05;;
44434;SDS011;30138;20.964;105.830;2023-02-08T14:01:39;63.42;;;40.00;;
44434;SDS011;30138;20.964;105.830;2023-02-08T14:08:03;76.72;;;41.08;;
44434;SDS011;30138;20.964;105.830;2023-02-08T14:14:05;69.13;;;41.23;;
44434;SDS011;30138;20.964;105.830;2023-02-08T14:50:55;63.72;;;38.80;;
44434;SDS011;30138;20.964;105.830;2023-02-08T14:56:55;67.85;;;39.25;;
44434;SDS011;30138;20.964;105.830;2023-02-08T15:03:01;65.38;;;38.22;;
44434;SDS011;30138;20.964;105.830;2023-02-08T15:08:53;64.65;;;37.70;;
44434;SDS011;30138;20.964;105.830;2023-02-08T15:14:46;69.53;;;39.80;;
44434;SDS011;30138;20.964;105.830;2023-02-08T15:20:38;69.55;;;38.90;;
44434;SDS011;30138;20.964;105.830;2023-02-08T15:26:24;70.65;;;39.08;;
44434;SDS011;30138;20.964;105.830;2023-02-08T15:31:53;60.47;;;38.95;;
44434;SDS011;30138;20.964;105.830;2023-02-08T15:37:29;63.38;;;39.03;;
44434;SDS011;30138;20.964;105.830;2023-02-08T15:43:14;60.45;;;38.65;;
44434;SDS011;30138;20.964;105.830;2023-02-08T15:48:28;60.75;;;37.05;;
44434;SDS011;30138;20.964;105.830;2023-02-08T15:53:57;60.88;;;36.70;;
44434;SDS011;30138;20.964;105.830;2023-02-08T15:59:18;61.63;;;36.85;;
44434;SDS011;30138;20.964;105.830;2023-02-08T16:04:43;56.95;;;35.30;;
44434;SDS011;30138;20.964;105.830;2023-02-08T16:09:57;60.13;;;36.33;;
44434;SDS011;30138;20.964;105.830;2023-02-08T16:20:54;59.67;;;36.42;;
44434;SDS011;30138;20.964;105.830;2023-02-08T16:26:16;56.25;;;35.28;;
44434;SDS011;30138;20.964;105.830;2023-02-08T16:31:35;56.22;;;34.80;;
44434;SDS011;30138;20.964;105.830;2023-02-08T16:36:51;50.53;;;34.35;;
44434;SDS011;30138;20.964;105.830;2023-02-08T16:42:00;53.50;;;34.47;;
44434;SDS011;30138;20.964;105.830;2023-02-08T16:52:44;50.55;;;34.33;;
44434;SDS011;30138;20.964;105.830;2023-02-08T16:57:59;54.45;;;33.55;;
44434;SDS011;30138;20.964;105.830;2023-02-08T17:03:10;54.10;;;34.30;;
44434;SDS011;30138;20.964;105.830;2023-02-08T17:08:19;55.78;;;33.65;;
44434;SDS011;30138;20.964;105.830;2023-02-08T17:13:28;47.95;;;33.22;;
44434;SDS011;30138;20.964;105.830;2023-02-08T17:18:40;49.40;;;33.38;;
44434;SDS011;30138;20.964;105.830;2023-02-08T17:23:48;49.63;;;33.53;;
44434;SDS011;30138;20.964;105.830;2023-02-08T17:28:57;54.78;;;34.33;;
44434;SDS011;30138;20.964;105.830;2023-02-08T17:34:07;52.05;;;33.15;;
44434;SDS011;30138;20.964;105.830;2023-02-08T17:39:18;48.30;;;32.17;;
44434;SDS011;30138;20.964;105.830;2023-02-08T17:44:27;51.47;;;33.53;;
44434;SDS011;30138;20.964;105.830;2023-02-08T17:49:37;49.00;;;32.53;;
44434;SDS011;30138;20.964;105.830;2023-02-08T17:54:45;48.75;;;32.13;;
44434;SDS011;30138;20.964;105.830;2023-02-08T17:59:53;45.95;;;30.77;;
44434;SDS011;30138;20.964;105.830;2023-02-08T18:05:03;50.22;;;32.85;;
44434;SDS011;30138;20.964;105.830;2023-02-08T18:10:12;46.35;;;31.63;;
44434;SDS011;30138;20.964;105.830;2023-02-08T18:15:20;46.17;;;31.58;;
44434;SDS011;30138;20.964;105.830;2023-02-08T18:20:31;45.60;;;31.20;;
44434;SDS011;30138;20.964;105.830;2023-02-08T18:25:41;44.63;;;30.83;;
44434;SDS011;30138;20.964;105.830;2023-02-08T18:30:49;41.55;;;30.27;;
44434;SDS011;30138;20.964;105.830;2023-02-08T18:35:59;44.63;;;31.15;;
44434;SDS011;30138;20.964;105.830;2023-02-08T18:41:07;44.35;;;29.45;;
44434;SDS011;30138;20.964;105.830;2023-02-08T18:46:16;44.67;;;30.52;;
44434;SDS011;30138;20.964;105.830;2023-02-08T18:51:28;42.15;;;29.23;;
44434;SDS011;30138;20.964;105.830;2023-02-08T18:56:36;42.50;;;29.92;;
44434;SDS011;30138;20.964;105.830;2023-02-08T19:01:44;41.78;;;29.13;;
44434;SDS011;30138;20.964;105.830;2023-02-08T19:06:56;42.42;;;29.00;;
44434;SDS011;30138;20.964;105.830;2023-02-08T19:12:05;41.25;;;29.60;;
44434;SDS011;30138;20.964;105.830;2023-02-08T19:17:16;40.78;;;28.98;;
44434;SDS011;30138;20.964;105.830;2023-02-08T19:22:26;41.65;;;29.25;;
44434;SDS011;30138;20.964;105.830;2023-02-08T19:27:34;38.95;;;27.75;;
44434;SDS011;30138;20.964;105.830;2023-02-08T19:32:42;41.40;;;27.77;;
44434;SDS011;30138;20.964;105.830;2023-02-08T19:37:52;40.53;;;28.48;;
44434;SDS011;30138;20.964;105.830;2023-02-08T19:43:00;42.85;;;28.38;;
44434;SDS011;30138;20.964;105.830;2023-02-08T19:48:07;38.88;;;27.45;;
44434;SDS011;30138;20.964;105.830;2023-02-08T19:53:18;40.45;;;27.40;;
44434;SDS011;30138;20.964;105.830;2023-02-08T19:58:26;39.47;;;27.67;;
44434;SDS011;30138;20.964;105.830;2023-02-08T20:03:34;43.20;;;26.35;;
44434;SDS011;30138;20.964;105.830;2023-02-08T20:08:44;42.92;;;27.15;;
44434;SDS011;30138;20.964;105.830;2023-02-08T20:19:03;38.33;;;27.48;;
44434;SDS011;30138;20.964;105.830;2023-02-08T20:24:14;37.25;;;26.42;;
44434;SDS011;30138;20.964;105.830;2023-02-08T20:29:22;37.42;;;26.17;;
44434;SDS011;30138;20.964;105.830;2023-02-08T20:34:29;38.97;;;27.00;;
44434;SDS011;30138;20.964;105.830;2023-02-08T20:39:39;36.20;;;26.35;;
44434;SDS011;30138;20.964;105.830;2023-02-08T20:44:47;38.35;;;27.48;;
44434;SDS011;30138;20.964;105.830;2023-02-08T20:49:54;41.67;;;28.02;;
44434;SDS011;30138;20.964;105.830;2023-02-08T20:55:04;39.53;;;26.83;;
44434;SDS011;30138;20.964;105.830;2023-02-08T21:00:14;42.70;;;28.97;;
44434;SDS011;30138;20.964;105.830;2023-02-08T21:05:24;37.30;;;27.63;;
44434;SDS011;30138;20.964;105.830;2023-02-08T21:10:36;39.22;;;26.60;;
44434;SDS011;30138;20.964;105.830;2023-02-08T21:15:45;37.72;;;26.35;;
44434;SDS011;30138;20.964;105.830;2023-02-08T21:20:54;41.05;;;27.77;;
44434;SDS011;30138;20.964;105.830;2023-02-08T21:26:05;40.88;;;26.98;;
44434;SDS011;30138;20.964;105.830;2023-02-08T21:31:17;39.28;;;27.60;;
44434;SDS011;30138;20.964;105.830;2023-02-08T21:36:25;39.10;;;27.17;;
44434;SDS011;30138;20.964;105.830;2023-02-08T21:41:38;39.17;;;27.90;;
44434;SDS011;30138;20.964;105.830;2023-02-08T21:46:45;41.30;;;26.38;;
44434;SDS011;30138;20.964;105.830;2023-02-08T21:51:53;38.13;;;26.63;;
44434;SDS011;30138;20.964;105.830;2023-02-08T21:57:19;38.17;;;27.27;;
44434;SDS011;30138;20.964;105.830;2023-02-08T22:02:28;38.92;;;27.73;;
44434;SDS011;30138;20.964;105.830;2023-02-08T22:07:42;39.45;;;28.20;;
44434;SDS011;30138;20.964;105.830;2023-02-08T22:12:54;40.30;;;28.15;;
44434;SDS011;30138;20.964;105.830;2023-02-08T22:18:03;40.38;;;27.63;;
44434;SDS011;30138;20.964;105.830;2023-02-08T22:23:11;41.10;;;28.77;;
44434;SDS011;30138;20.964;105.830;2023-02-08T22:28:22;38.67;;;26.45;;
44434;SDS011;30138;20.964;105.830;2023-02-08T22:33:30;40.33;;;27.88;;
44434;SDS011;30138;20.964;105.830;2023-02-08T22:38:38;40.38;;;27.92;;
44434;SDS011;30138;20.964;105.830;2023-02-08T22:43:49;41.53;;;27.92;;
44434;SDS011;30138;20.964;105.830;2023-02-08T22:48:57;42.15;;;28.98;;
44434;SDS011;30138;20.964;105.830;2023-02-08T22:54:06;39.47;;;27.98;;
44434;SDS011;30138;20.964;105.830;2023-02-08T22:59:17;40.10;;;28.38;;
44434;SDS011;30138;20.964;105.830;2023-02-08T23:04:24;40.00;;;28.00;;
44434;SDS011;30138;20.964;105.830;2023-02-08T23:09:32;39.60;;;28.30;;
44434;SDS011;30138;20.964;105.830;2023-02-08T23:14:43;44.25;;;28.92;;
44434;SDS011;30138;20.964;105.830;2023-02-08T23:19:52;41.97;;;28.85;;
44434;SDS011;30138;20.964;105.830;2023-02-08T23:25:00;41.05;;;28.48;;
44434;SDS011;30138;20.964;105.830;2023-02-08T23:30:11;43.22;;;28.25;;
44434;SDS011;30138;20.964;105.830;2023-02-08T23:35:21;41.70;;;27.75;;
44434;SDS011;30138;20.964;105.830;2023-02-08T23:40:28;42.78;;;28.98;;
44434;SDS011;30138;20.964;105.830;2023-02-08T23:45:39;43.83;;;29.20;;
44434;SDS011;30138;20.964;105.830;2023-02-08T23:50:55;43.22;;;28.17;;
44434;SDS011;30138;20.964;105.830;2023-02-08T23:56:04;40.47;;;28.30;;
